Time;durP1;ratioP1;P1;durP2;ratioP2;P2;SDS_P1;SDS_P2;PMS_P1;PMS_P2;Temp;Humidity;BMP_temperature;BMP_pressure;BME280_temperature;BME280_humidity;BME280_pressure;Samples;Min_cycle;Max_cycle;Signal;HPM_P1;HPM_P2
2024/04/02 00:00:44;;;;;;;3.47;1.57;;;10.60;47.90;;;;;;5013160;28;20183;-84
2024/04/02 00:03:11;;;;;;;4.13;1.73;;;10.70;48.20;;;;;;5015653;28;20209;-85
2024/04/02 00:05:41;;;;;;;5.13;2.20;;;10.70;44.70;;;;;;5014779;28;20264;-85
2024/04/02 00:08:07;;;;;;;6.50;1.70;;;10.70;42.90;;;;;;5014575;28;20276;-84
2024/04/02 00:10:35;;;;;;;4.67;1.90;;;10.70;39.30;;;;;;5014543;28;20561;-84
2024/04/02 00:13:01;;;;;;;3.97;2.00;;;10.70;41.10;;;;;;5014933;28;20281;-85
2024/04/02 00:15:27;;;;;;;3.83;1.90;;;10.60;43.00;;;;;;5014218;28;20190;-84
2024/04/02 00:17:53;;;;;;;7.03;2.20;;;10.60;45.90;;;;;;5014820;28;20179;-84
2024/04/02 00:20:20;;;;;;;5.33;1.90;;;10.60;46.30;;;;;;5014082;28;20182;-86
2024/04/02 00:22:46;;;;;;;4.67;2.07;;;10.60;47.00;;;;;;5014139;28;20178;-84
2024/04/02 00:25:12;;;;;;;5.10;1.83;;;10.50;47.70;;;;;;5014706;28;20225;-83
2024/04/02 00:27:37;;;;;;;5.60;1.87;;;10.50;48.00;;;;;;5014174;28;20274;-85
2024/04/02 00:30:04;;;;;;;4.03;2.07;;;10.50;50.10;;;;;;5013253;28;20209;-84
2024/04/02 00:32:30;;;;;;;5.63;1.93;;;10.40;50.90;;;;;;5014339;28;20236;-85
2024/04/02 00:34:56;;;;;;;5.60;1.97;;;10.40;52.40;;;;;;5024236;28;20228;-84
2024/04/02 00:37:23;;;;;;;2.87;1.70;;;10.40;50.30;;;;;;5031297;28;20206;-83
2024/04/02 00:39:48;;;;;;;4.10;1.80;;;10.40;53.10;;;;;;5034234;28;20186;-85
2024/04/02 00:42:16;;;;;;;5.53;2.00;;;10.40;50.40;;;;;;5022302;28;20228;-85
2024/04/02 00:44:44;;;;;;;4.57;1.50;;;10.40;48.80;;;;;;5017068;28;20209;-85
2024/04/02 00:47:13;;;;;;;4.10;1.90;;;10.40;49.70;;;;;;5013535;28;20228;-85
2024/04/02 00:49:40;;;;;;;4.30;1.57;;;10.50;46.80;;;;;;5013352;28;20217;-85
2024/04/02 00:52:07;;;;;;;5.40;1.80;;;10.50;46.00;;;;;;5012540;28;20209;-84
2024/04/02 00:54:33;;;;;;;5.87;1.73;;;10.50;46.30;;;;;;5012311;28;20217;-84
2024/04/02 00:57:00;;;;;;;4.27;1.50;;;10.50;47.20;;;;;;5014823;28;20239;-84
2024/04/02 00:59:26;;;;;;;3.63;1.67;;;10.50;51.60;;;;;;5018782;28;20177;-83
2024/04/02 01:01:52;;;;;;;4.97;1.77;;;10.50;48.40;;;;;;5017530;28;20181;-84
2024/04/02 01:04:19;;;;;;;3.80;1.70;;;10.50;51.10;;;;;;5018539;28;20198;-84
2024/04/02 01:06:46;;;;;;;4.03;1.80;;;10.50;53.10;;;;;;5017440;28;20178;-84
2024/04/02 01:09:13;;;;;;;3.90;1.40;;;10.50;53.60;;;;;;5017932;28;20182;-84
2024/04/02 01:11:40;;;;;;;4.30;1.70;;;10.50;53.70;;;;;;5017527;28;20301;-84
2024/04/02 01:14:06;;;;;;;3.83;1.73;;;10.50;55.30;;;;;;5017026;28;20184;-84
2024/04/02 01:16:32;;;;;;;5.17;1.90;;;10.40;55.50;;;;;;5018235;28;20255;-83
2024/04/02 01:18:57;;;;;;;4.93;1.90;;;10.40;59.10;;;;;;5017549;28;20631;-85
2024/04/02 01:21:27;;;;;;;3.10;1.53;;;10.40;59.90;;;;;;5017306;28;20186;-84
2024/04/02 01:23:52;;;;;;;4.57;2.00;;;10.40;61.00;;;;;;5018768;28;20186;-86
2024/04/02 01:26:18;;;;;;;5.60;1.93;;;10.50;67.40;;;;;;5018105;28;20226;-83
2024/04/02 01:28:43;;;;;;;4.00;1.43;;;10.50;79.20;;;;;;5018276;28;20524;-85
2024/04/02 01:31:09;;;;;;;4.27;1.50;;;10.40;89.40;;;;;;5018241;28;20210;-83
2024/04/02 01:33:35;;;;;;;4.53;1.47;;;10.40;92.20;;;;;;5017591;28;20182;-84
2024/04/02 01:36:00;;;;;;;3.50;1.53;;;10.40;92.10;;;;;;5017649;28;20189;-84
2024/04/02 01:38:26;;;;;;;3.07;1.63;;;10.30;93.50;;;;;;5017101;28;20189;-85
2024/04/02 01:40:52;;;;;;;4.77;1.70;;;10.30;94.50;;;;;;5015474;28;20274;-84
2024/04/02 01:43:17;;;;;;;4.53;1.90;;;10.30;93.60;;;;;;5031897;28;20647;-85
2024/04/02 01:45:43;;;;;;;3.13;1.43;;;10.30;95.40;;;;;;5016076;28;20174;-84
2024/04/02 01:48:09;;;;;;;4.00;1.40;;;10.30;96.40;;;;;;5016280;28;20233;-84
2024/04/02 01:50:34;;;;;;;4.20;1.40;;;10.20;95.30;;;;;;5016520;28;20721;-84
2024/04/02 01:53:00;;;;;;;4.07;1.40;;;10.20;96.90;;;;;;5016857;28;20174;-84
2024/04/02 01:55:26;;;;;;;4.43;1.70;;;10.20;96.90;;;;;;5017165;28;20179;-85
2024/04/02 01:57:51;;;;;;;3.07;1.63;;;10.20;97.30;;;;;;5016917;28;20181;-86
2024/04/02 02:00:18;;;;;;;3.73;2.00;;;10.30;97.60;;;;;;5016410;28;20705;-86
2024/04/02 02:02:43;;;;;;;4.47;2.07;;;10.20;97.50;;;;;;5017379;28;20547;-86
2024/04/02 02:05:09;;;;;;;2.80;1.50;;;10.20;97.20;;;;;;5016032;28;20190;-84
2024/04/02 02:07:35;;;;;;;4.50;1.77;;;10.20;99.40;;;;;;5016111;28;20178;-84
2024/04/02 02:10:02;;;;;;;4.67;1.57;;;10.20;98.10;;;;;;5016426;28;20186;-84
2024/04/02 02:12:27;;;;;;;4.73;1.50;;;10.30;98.50;;;;;;5015834;28;20201;-84
2024/04/02 02:14:54;;;;;;;7.23;1.80;;;10.20;97.90;;;;;;5017174;28;20166;-84
2024/04/02 02:17:20;;;;;;;4.63;1.80;;;10.10;99.80;;;;;;5016383;28;20240;-85
2024/04/02 02:19:45;;;;;;;4.40;1.53;;;10.20;99.60;;;;;;5016582;28;20577;-84
2024/04/02 02:22:11;;;;;;;5.27;1.77;;;10.20;99.30;;;;;;5016811;28;20581;-85
2024/04/02 02:24:37;;;;;;;4.17;1.60;;;10.10;99.90;;;;;;5016552;28;20555;-84
2024/04/02 02:27:03;;;;;;;2.93;1.43;;;10.10;99.90;;;;;;5016070;28;20178;-84
2024/04/02 02:29:29;;;;;;;4.27;1.80;;;10.00;99.90;;;;;;5016647;28;20650;-84
2024/04/02 02:31:57;;;;;;;5.00;1.17;;;10.10;99.90;;;;;;5016413;28;20794;-84
2024/04/02 02:34:23;;;;;;;3.90;1.57;;;10.10;99.90;;;;;;5015871;28;20273;-83
2024/04/02 02:36:50;;;;;;;3.50;1.30;;;10.10;99.90;;;;;;5016220;28;20213;-84
2024/04/02 02:39:16;;;;;;;3.10;1.47;;;10.00;99.90;;;;;;5015448;28;20183;-83
2024/04/02 02:41:46;;;;;;;3.40;1.40;;;10.10;99.90;;;;;;5015105;28;20180;-83
2024/04/02 02:44:12;;;;;;;3.27;1.47;;;10.10;99.90;;;;;;5015072;28;20178;-84
2024/04/02 02:46:38;;;;;;;3.77;1.73;;;10.10;99.90;;;;;;5016443;28;20162;-84
2024/04/02 02:49:04;;;;;;;3.60;1.30;;;10.20;99.90;;;;;;5015844;28;20244;-85
2024/04/02 02:51:30;;;;;;;4.13;1.67;;;10.20;99.90;;;;;;5015625;28;20639;-83
2024/04/02 02:53:56;;;;;;;3.30;1.33;;;10.20;99.90;;;;;;5017021;28;20237;-84
2024/04/02 02:56:24;;;;;;;3.60;1.40;;;10.20;99.90;;;;;;5015916;28;20190;-84
2024/04/02 02:58:51;;;;;;;4.87;1.63;;;10.20;99.90;;;;;;5015171;28;20178;-85
2024/04/02 03:01:17;;;;;;;6.27;1.87;;;10.20;99.90;;;;;;5016186;28;20309;-84
2024/04/02 03:03:51;;;;;;;5.43;1.40;;;10.20;99.90;;;;;;5015701;28;20671;-85
2024/04/02 03:06:19;;;;;;;4.57;1.43;;;10.10;99.90;;;;;;5015830;28;20185;-84
2024/04/02 03:08:45;;;;;;;4.13;1.53;;;10.00;99.90;;;;;;5015470;28;20380;-84
2024/04/02 03:11:11;;;;;;;4.10;1.50;;;10.00;99.90;;;;;;5015149;28;20663;-84
2024/04/02 03:13:36;;;;;;;4.30;1.80;;;9.90;99.90;;;;;;5014823;28;20198;-83
2024/04/02 03:16:04;;;;;;;4.33;1.43;;;9.80;99.90;;;;;;5015795;28;20205;-84
2024/04/02 03:18:30;;;;;;;5.27;1.40;;;9.80;99.90;;;;;;5014699;28;20174;-84
2024/04/02 03:20:56;;;;;;;4.57;1.77;;;9.90;99.90;;;;;;5029539;28;20190;-84
2024/04/02 03:23:22;;;;;;;4.83;1.60;;;9.90;99.90;;;;;;5031202;28;20189;-85
2024/04/02 03:26:03;;;;;;;3.87;1.53;;;9.90;99.90;;;;;;5033421;28;20161;-84
2024/04/02 03:28:32;;;;;;;5.77;1.53;;;9.80;99.90;;;;;;5020984;28;20640;-84
2024/04/02 03:31:14;;;;;;;5.83;1.87;;;9.90;99.90;;;;;;5017797;28;20198;-84
2024/04/02 03:33:55;;;;;;;4.07;1.60;;;9.80;99.90;;;;;;5015451;28;20183;-84
2024/04/02 03:36:20;;;;;;;5.20;1.60;;;9.80;99.90;;;;;;5030696;28;20277;-83
2024/04/02 03:38:46;;;;;;;5.83;1.60;;;9.80;99.90;;;;;;5014326;28;20295;-84
2024/04/02 03:41:13;;;;;;;5.47;1.47;;;9.90;99.90;;;;;;5015241;28;20301;-82
2024/04/02 03:43:41;;;;;;;6.30;1.80;;;9.90;99.90;;;;;;5014574;28;20637;-83
2024/04/02 03:46:09;;;;;;;6.87;2.00;;;9.90;99.90;;;;;;5013563;28;20185;-84
2024/04/02 03:48:36;;;;;;;5.90;2.40;;;9.90;99.90;;;;;;5013398;28;20167;-83
2024/04/02 03:51:03;;;;;;;9.00;2.10;;;9.90;99.90;;;;;;5013636;28;20748;-83
2024/04/02 03:53:29;;;;;;;5.83;1.70;;;9.90;99.90;;;;;;5013923;28;20170;-84
2024/04/02 03:56:02;;;;;;;10.70;2.50;;;10.00;99.90;;;;;;5014523;28;20175;-84
2024/04/02 03:58:29;;;;;;;5.37;1.67;;;9.90;99.90;;;;;;5013617;28;20609;-84
2024/04/02 04:00:56;;;;;;;9.30;1.97;;;10.00;99.90;;;;;;5014784;28;20178;-83
2024/04/02 04:03:26;;;;;;;7.77;1.90;;;9.90;99.90;;;;;;5014309;28;20170;-83
2024/04/02 04:05:58;;;;;;;5.37;2.00;;;9.90;99.90;;;;;;5013650;28;20173;-84
2024/04/02 04:08:26;;;;;;;6.50;2.07;;;9.80;99.90;;;;;;5014979;28;20166;-85
2024/04/02 04:10:52;;;;;;;7.17;2.53;;;9.90;99.90;;;;;;5014432;28;20198;-84
2024/04/02 04:13:18;;;;;;;7.63;2.40;;;9.90;99.90;;;;;;5014709;28;20182;-84
2024/04/02 04:15:54;;;;;;;7.77;2.20;;;9.80;99.90;;;;;;5014385;28;20265;-82
2024/04/02 04:18:21;;;;;;;6.77;1.90;;;9.70;99.90;;;;;;5015356;28;20253;-85
2024/04/02 04:20:57;;;;;;;9.57;2.40;;;9.70;99.90;;;;;;5015946;28;20769;-83
2024/04/02 04:23:24;;;;;;;7.63;2.20;;;9.80;99.90;;;;;;5015596;28;20177;-85
2024/04/02 04:26:01;;;;;;;8.27;2.50;;;9.70;99.90;;;;;;5015806;28;20202;-83
2024/04/02 04:28:27;;;;;;;8.37;2.40;;;9.70;99.90;;;;;;5016052;28;20182;-83
2024/04/02 04:31:02;;;;;;;5.97;2.47;;;9.80;99.90;;;;;;5014707;28;20206;-84
2024/04/02 04:33:29;;;;;;;13.90;2.80;;;9.70;99.90;;;;;;5014935;28;20181;-84
2024/04/02 04:35:55;;;;;;;9.00;2.33;;;9.70;99.90;;;;;;5013613;28;20631;-83
2024/04/02 04:38:24;;;;;;;9.53;1.97;;;9.70;99.90;;;;;;5013427;28;20265;-83
2024/04/02 04:40:50;;;;;;;13.37;2.83;;;9.70;99.90;;;;;;5012930;28;20650;-84
2024/04/02 04:43:17;;;;;;;6.80;2.13;;;9.70;99.90;;;;;;5012958;28;20178;-83
2024/04/02 04:45:57;;;;;;;5.67;2.20;;;9.70;99.90;;;;;;5013344;28;20202;-85
2024/04/02 04:48:23;;;;;;;12.97;3.07;;;9.70;99.90;;;;;;5013760;28;20261;-83
2024/04/02 04:51:05;;;;;;;8.53;2.27;;;9.70;99.90;;;;;;5013452;28;20214;-84
2024/04/02 04:53:32;;;;;;;8.30;2.00;;;9.80;99.90;;;;;;5013737;28;20643;-84
2024/04/02 04:56:01;;;;;;;9.67;2.77;;;9.80;99.90;;;;;;5013536;28;20178;-84
2024/04/02 04:58:28;;;;;;;12.23;3.00;;;9.80;99.90;;;;;;5013044;28;20178;-84
2024/04/02 05:00:54;;;;;;;11.90;2.50;;;9.80;99.90;;;;;;5014008;28;20178;-84
2024/04/02 05:03:20;;;;;;;13.43;2.93;;;9.90;99.90;;;;;;5015182;28;20182;-85
2024/04/02 05:05:45;;;;;;;10.37;2.63;;;9.80;99.30;;;;;;5013868;28;20174;-83
2024/04/02 05:08:21;;;;;;;11.00;2.50;;;9.80;99.90;;;;;;5014118;28;20181;-83
2024/04/02 05:10:49;;;;;;;9.33;2.77;;;9.80;99.90;;;;;;5013483;28;20224;-84
2024/04/02 05:13:15;;;;;;;7.80;2.33;;;9.80;99.90;;;;;;5014004;28;20340;-84
2024/04/02 05:15:42;;;;;;;11.50;2.50;;;9.90;99.90;;;;;;5013420;28;20182;-84
2024/04/02 05:18:08;;;;;;;12.80;2.63;;;9.90;99.90;;;;;;5013405;28;20171;-85
2024/04/02 05:20:35;;;;;;;12.67;3.30;;;9.80;98.00;;;;;;5013777;28;20170;-84
2024/04/02 05:23:02;;;;;;;13.93;3.20;;;9.90;99.90;;;;;;5013198;28;20171;-84
2024/04/02 05:25:27;;;;;;;8.67;2.70;;;10.00;97.90;;;;;;5013697;28;20229;-85
2024/04/02 05:27:53;;;;;;;10.20;2.57;;;9.90;94.70;;;;;;5013204;28;20183;-84
2024/04/02 05:30:19;;;;;;;12.13;3.07;;;9.90;94.50;;;;;;5012545;28;20213;-82
2024/04/02 05:32:45;;;;;;;12.10;3.00;;;9.90;94.70;;;;;;5013743;28;20178;-83
2024/04/02 05:35:10;;;;;;;11.43;2.77;;;10.00;92.80;;;;;;5013411;28;20265;-84
2024/04/02 05:37:36;;;;;;;9.43;2.63;;;9.90;93.60;;;;;;5013056;28;20566;-84
2024/04/02 05:40:05;;;;;;;9.37;2.70;;;9.90;93.90;;;;;;5013535;28;20730;-84
2024/04/02 05:42:31;;;;;;;10.87;2.90;;;9.90;95.50;;;;;;5014783;28;20169;-84
2024/04/02 05:44:57;;;;;;;8.90;2.93;;;9.90;93.50;;;;;;5018072;28;20243;-84
2024/04/02 05:47:23;;;;;;;9.07;2.60;;;10.00;91.40;;;;;;5017216;28;20228;-84
2024/04/02 05:49:50;;;;;;;10.57;2.43;;;10.00;91.50;;;;;;5016643;28;20181;-84
2024/04/02 05:52:18;;;;;;;8.27;2.43;;;9.90;92.10;;;;;;5016968;28;20210;-85
2024/04/02 05:54:44;;;;;;;11.63;2.60;;;10.00;89.80;;;;;;5016449;28;20170;-85
2024/04/02 05:57:10;;;;;;;10.57;3.07;;;10.00;90.90;;;;;;5016661;28;20185;-84
2024/04/02 05:59:37;;;;;;;12.13;3.03;;;9.90;88.60;;;;;;5016861;28;20201;-84
2024/04/02 06:02:03;;;;;;;10.17;2.77;;;10.10;85.20;;;;;;5028134;28;20249;-84
2024/04/02 06:04:28;;;;;;;11.87;2.63;;;10.10;81.10;;;;;;5036209;28;20189;-85
2024/04/02 06:06:54;;;;;;;11.70;2.90;;;10.10;79.10;;;;;;5036353;28;20200;-84
2024/04/02 06:09:21;;;;;;;10.83;2.57;;;10.10;79.90;;;;;;5028578;28;20182;-85
2024/04/02 06:11:48;;;;;;;7.90;2.43;;;10.10;79.30;;;;;;5021699;28;20209;-85
2024/04/02 06:14:21;;;;;;;11.33;3.17;;;10.10;80.30;;;;;;5018151;28;20170;-84
2024/04/02 06:16:46;;;;;;;11.10;2.83;;;10.10;79.20;;;;;;5016716;28;20708;-85
2024/04/02 06:19:12;;;;;;;6.60;2.50;;;10.10;75.90;;;;;;5015546;28;20171;-85
2024/04/02 06:21:38;;;;;;;12.37;3.60;;;10.20;74.90;;;;;;5016273;28;20181;-84
2024/04/02 06:24:04;;;;;;;13.43;3.17;;;10.10;75.90;;;;;;5015725;28;20186;-84
2024/04/02 06:26:29;;;;;;;11.60;2.90;;;10.10;74.10;;;;;;5016309;28;20541;-86
2024/04/02 06:28:55;;;;;;;13.17;2.60;;;10.10;77.90;;;;;;5016403;28;20208;-85
2024/04/02 06:31:20;;;;;;;9.93;2.87;;;10.10;76.80;;;;;;5015888;28;20216;-84
2024/04/02 06:33:46;;;;;;;8.87;2.90;;;10.10;75.90;;;;;;5016700;28;20646;-84
2024/04/02 06:36:12;;;;;;;8.63;2.83;;;10.20;75.60;;;;;;5015965;28;20631;-85
2024/04/02 06:38:38;;;;;;;10.20;2.67;;;10.20;77.70;;;;;;5015798;28;20253;-85
2024/04/02 06:41:03;;;;;;;10.53;2.47;;;10.20;72.20;;;;;;5015203;28;20647;-83
2024/04/02 06:43:29;;;;;;;10.57;2.87;;;10.20;71.90;;;;;;5014211;28;20224;-84
2024/04/02 06:45:59;;;;;;;8.00;2.97;;;10.30;69.30;;;;;;5014334;28;20216;-84
2024/04/02 06:48:25;;;;;;;11.50;3.20;;;10.40;61.40;;;;;;5014431;28;20714;-85
2024/04/02 06:51:04;;;;;;;11.10;2.53;;;10.30;62.50;;;;;;5015699;28;20233;-85
2024/04/02 06:53:34;;;;;;;8.63;3.03;;;10.40;63.90;;;;;;5016407;28;20171;-86
2024/04/02 06:56:00;;;;;;;10.77;2.53;;;10.40;60.30;;;;;;5014738;28;20258;-84
2024/04/02 06:58:26;;;;;;;5.70;2.30;;;10.50;55.50;;;;;;5015783;28;20202;-85
2024/04/02 07:00:52;;;;;;;10.97;2.53;;;10.50;56.20;;;;;;5015225;28;20269;-85
2024/04/02 07:03:22;;;;;;;8.10;2.30;;;10.50;53.20;;;;;;5016150;28;20216;-82
2024/04/02 07:05:50;;;;;;;9.80;2.63;;;10.60;52.10;;;;;;5015483;28;20202;-86
2024/04/02 07:08:15;;;;;;;7.93;2.53;;;10.60;49.10;;;;;;5015467;28;20181;-85
2024/04/02 07:10:44;;;;;;;8.23;2.30;;;10.60;46.20;;;;;;5009446;28;20214;-85
2024/04/02 07:13:11;;;;;;;9.30;2.37;;;10.60;45.10;;;;;;4995930;28;20199;-84
2024/04/02 07:15:37;;;;;;;13.87;3.00;;;10.70;43.30;;;;;;4996456;28;20642;-85
2024/04/02 07:18:04;;;;;;;10.77;2.03;;;10.80;41.30;;;;;;4995618;28;20179;-85
2024/04/02 07:20:30;;;;;;;12.23;2.93;;;10.80;37.40;;;;;;4996353;28;20179;-85
2024/04/02 07:22:55;;;;;;;9.20;2.60;;;10.80;32.10;;;;;;4995734;28;20175;-84
2024/04/02 07:25:21;;;;;;;11.50;2.40;;;10.90;31.80;;;;;;4994897;28;20211;-84
2024/04/02 07:27:48;;;;;;;8.30;2.40;;;11.00;31.40;;;;;;4995465;28;20175;-84
2024/04/02 07:30:14;;;;;;;8.10;2.30;;;11.10;25.20;;;;;;4994737;28;20175;-84
2024/04/02 07:32:40;;;;;;;10.57;2.33;;;11.10;22.70;;;;;;4995393;28;20175;-85
2024/04/02 07:35:06;;;;;;;11.07;2.40;;;11.20;21.10;;;;;;5027607;28;20255;-85
2024/04/02 07:37:32;;;;;;;10.67;3.30;;;11.20;17.40;;;;;;4995314;28;20183;-85
2024/04/02 07:39:58;;;;;;;11.10;2.53;;;11.20;18.80;;;;;;4995536;28;20190;-87
2024/04/02 07:42:24;;;;;;;11.67;2.77;;;11.10;21.60;;;;;;4994268;28;20171;-86
2024/04/02 07:44:50;;;;;;;7.47;2.40;;;11.10;21.00;;;;;;4993837;28;20170;-84
2024/04/02 07:47:16;;;;;;;9.87;3.40;;;11.10;24.20;;;;;;4993919;28;20178;-84
2024/04/02 07:49:41;;;;;;;9.63;2.40;;;11.10;27.70;;;;;;5010151;28;20176;-84
2024/04/02 07:52:07;;;;;;;11.20;2.77;;;11.20;26.00;;;;;;4994510;28;20701;-86
2024/04/02 07:54:33;;;;;;;9.27;2.50;;;11.10;28.50;;;;;;4994139;28;20631;-85
2024/04/02 07:56:59;;;;;;;8.03;2.57;;;11.20;35.30;;;;;;4994500;28;20666;-84
2024/04/02 07:59:25;;;;;;;8.40;1.97;;;11.10;35.10;;;;;;4993603;28;20175;-84
2024/04/02 08:01:51;;;;;;;9.43;2.30;;;11.20;34.60;;;;;;4994076;28;20216;-84
2024/04/02 08:04:17;;;;;;;10.30;2.63;;;11.20;32.90;;;;;;4993997;28;20190;-82
2024/04/02 08:06:45;;;;;;;7.30;2.33;;;11.20;34.40;;;;;;4994392;28;20183;-85
2024/04/02 08:09:11;;;;;;;13.37;2.93;;;11.20;36.80;;;;;;4994284;28;20742;-85
2024/04/02 08:11:38;;;;;;;12.60;2.63;;;11.10;42.30;;;;;;4994236;28;20230;-85
2024/04/02 08:14:04;;;;;;;9.93;2.57;;;11.20;45.30;;;;;;4994148;28;20179;-86
2024/04/02 08:16:30;;;;;;;10.27;2.57;;;11.20;44.90;;;;;;4994840;28;20183;-85
2024/04/02 08:18:55;;;;;;;9.87;2.73;;;11.30;40.50;;;;;;4995536;28;20175;-85
2024/04/02 08:21:21;;;;;;;10.30;2.50;;;11.30;35.80;;;;;;4994507;28;20201;-85
2024/04/02 08:23:47;;;;;;;11.27;2.93;;;11.40;31.20;;;;;;4994538;28;20210;-85
2024/04/02 08:26:12;;;;;;;9.47;2.43;;;11.30;26.80;;;;;;5026787;28;20186;-83
2024/04/02 08:28:38;;;;;;;9.60;2.60;;;11.40;25.10;;;;;;4994657;28;20644;-84
2024/04/02 08:31:04;;;;;;;10.37;2.53;;;11.30;29.00;;;;;;4994028;28;20675;-84
2024/04/02 08:33:30;;;;;;;11.30;2.53;;;11.30;39.00;;;;;;4994256;28;20183;-84
2024/04/02 08:35:55;;;;;;;11.47;2.83;;;11.30;36.10;;;;;;4993932;28;20208;-84
2024/04/02 08:38:21;;;;;;;7.80;2.33;;;11.30;41.00;;;;;;4993122;28;20181;-84
2024/04/02 08:40:51;;;;;;;8.67;2.57;;;11.30;49.00;;;;;;5004434;28;20171;-83
2024/04/02 08:43:17;;;;;;;7.30;2.53;;;11.30;54.20;;;;;;5012853;28;20203;-82
2024/04/02 08:45:46;;;;;;;8.57;2.63;;;11.20;59.10;;;;;;5029683;28;20183;-83
2024/04/02 08:48:12;;;;;;;12.50;2.67;;;11.20;64.00;;;;;;5001406;28;20194;-86
2024/04/02 08:50:42;;;;;;;8.67;2.40;;;11.20;64.90;;;;;;4996058;28;20207;-86
2024/04/02 08:53:11;;;;;;;12.57;2.83;;;11.20;54.00;;;;;;4994474;28;20183;-87
2024/04/02 08:55:41;;;;;;;7.03;2.53;;;11.10;63.60;;;;;;4993706;28;20269;-86
2024/04/02 08:58:08;;;;;;;8.17;2.70;;;11.10;67.00;;;;;;4994056;28;20251;-86
2024/04/02 09:00:34;;;;;;;9.37;2.40;;;11.10;66.30;;;;;;4993339;28;20658;-85
2024/04/02 09:03:00;;;;;;;11.70;2.90;;;11.10;74.50;;;;;;4993450;28;20179;-85
2024/04/02 09:05:25;;;;;;;10.70;2.83;;;11.10;76.30;;;;;;4993764;28;20322;-85
2024/04/02 09:07:51;;;;;;;7.87;2.93;;;11.10;79.60;;;;;;4993161;28;20180;-84
2024/04/02 09:10:17;;;;;;;9.70;2.43;;;11.10;86.20;;;;;;4993874;28;20270;-88
2024/04/02 09:12:43;;;;;;;9.53;2.33;;;10.90;92.20;;;;;;4993159;28;20279;-85
2024/04/02 09:15:08;;;;;;;11.97;2.60;;;10.80;94.60;;;;;;4995068;28;20211;-85
2024/04/02 09:17:34;;;;;;;9.47;2.37;;;10.70;99.90;;;;;;4995844;28;20179;-83
2024/04/02 09:20:01;;;;;;;11.07;2.77;;;10.70;99.90;;;;;;4997550;28;20175;-85
2024/04/02 09:22:27;;;;;;;15.50;3.10;;;10.70;99.90;;;;;;4997472;28;20377;-85
2024/04/02 09:24:52;;;;;;;9.67;2.87;;;10.80;99.90;;;;;;4997326;28;20274;-85
2024/04/02 09:27:20;;;;;;;10.13;2.80;;;10.80;99.90;;;;;;4996840;28;20179;-84
2024/04/02 09:29:46;;;;;;;11.93;3.07;;;10.70;99.90;;;;;;4996398;28;20171;-83
2024/04/02 09:32:17;;;;;;;12.40;3.53;;;10.70;99.90;;;;;;4995273;28;20215;-84
2024/04/02 09:34:45;;;;;;;8.57;3.30;;;10.80;99.90;;;;;;4995917;28;20167;-83
2024/04/02 09:37:34;;;;;;;12.07;3.00;;;10.80;99.90;;;;;;4995818;28;20182;-84
2024/04/02 09:40:02;;;;;;;7.97;2.57;;;10.90;99.90;;;;;;4996706;28;20270;-84
2024/04/02 09:42:30;;;;;;;10.57;2.53;;;10.80;99.90;;;;;;4997186;28;20881;-85
2024/04/02 09:44:59;;;;;;;12.83;2.57;;;10.70;99.90;;;;;;4996519;28;20171;-84
2024/04/02 09:47:25;;;;;;;12.17;3.07;;;10.80;99.90;;;;;;4996956;28;20217;-86
2024/04/02 09:49:52;;;;;;;9.20;2.73;;;10.80;99.90;;;;;;5029799;28;20171;-83
2024/04/02 09:52:22;;;;;;;7.70;2.40;;;10.80;99.90;;;;;;4996468;28;20218;-84
2024/04/02 09:54:49;;;;;;;8.57;2.40;;;10.90;99.90;;;;;;4997148;28;20310;-84
2024/04/02 09:57:18;;;;;;;13.70;3.00;;;11.00;99.90;;;;;;4996785;28;20705;-84
2024/04/02 09:59:43;;;;;;;11.33;3.17;;;11.00;99.90;;;;;;5029721;28;20167;-84
2024/04/02 10:02:17;;;;;;;12.43;3.17;;;11.10;99.90;;;;;;4996364;28;20253;-83
2024/04/02 10:04:46;;;;;;;9.57;3.17;;;11.20;99.90;;;;;;5026620;28;20193;-84
2024/04/02 10:07:23;;;;;;;10.07;2.60;;;11.30;99.90;;;;;;5035023;28;20209;-85
2024/04/02 10:10:06;;;;;;;11.90;3.00;;;11.30;99.90;;;;;;5034929;28;20527;-83
2024/04/02 10:12:33;;;;;;;10.43;2.90;;;11.20;99.90;;;;;;5034973;28;20303;-83
2024/04/02 10:15:12;;;;;;;8.70;3.00;;;11.40;99.90;;;;;;5035247;28;20531;-84
2024/04/02 10:17:38;;;;;;;9.77;3.17;;;11.30;99.90;;;;;;5034075;28;20216;-85
2024/04/02 10:20:25;;;;;;;9.23;2.10;;;11.20;99.90;;;;;;5025674;28;20182;-84
2024/04/02 10:22:59;;;;;;;13.33;2.87;;;11.30;98.60;;;;;;5049386;28;20272;-85
2024/04/02 10:25:26;;;;;;;10.97;3.27;;;11.30;90.70;;;;;;5032581;28;20630;-84
2024/04/02 10:27:53;;;;;;;11.70;3.30;;;11.40;83.30;;;;;;5023160;28;20173;-85
2024/04/02 10:30:24;;;;;;;10.03;2.50;;;11.40;81.50;;;;;;5034019;28;20277;-88
2024/04/02 10:32:51;;;;;;;9.03;2.90;;;11.50;76.30;;;;;;5027928;28;20178;-84
2024/04/02 10:35:29;;;;;;;8.83;2.33;;;11.50;75.60;;;;;;5015854;28;20294;-84
2024/04/02 10:37:56;;;;;;;10.27;2.80;;;11.70;61.70;;;;;;5016800;28;20654;-85
2024/04/02 10:40:23;;;;;;;12.57;3.70;;;11.80;55.50;;;;;;5021757;28;20166;-86
2024/04/02 10:42:51;;;;;;;7.27;2.63;;;11.90;40.80;;;;;;5033664;28;20193;-87
2024/04/02 10:45:18;;;;;;;12.73;3.03;;;11.80;39.00;;;;;;5017156;28;20178;-85
2024/04/02 10:47:48;;;;;;;11.27;3.27;;;11.90;38.20;;;;;;5015521;28;20189;-84
2024/04/02 10:50:16;;;;;;;11.67;4.10;;;11.90;33.00;;;;;;5014513;28;20178;-83
2024/04/02 10:52:42;;;;;;;11.33;3.47;;;11.80;32.20;;;;;;5014306;28;20496;-83
2024/04/02 10:55:08;;;;;;;10.57;3.37;;;11.90;38.60;;;;;;5014653;28;20209;-85
2024/04/02 10:57:34;;;;;;;8.07;3.00;;;11.90;32.80;;;;;;5015755;28;20269;-83
2024/04/02 11:00:04;;;;;;;12.50;3.63;;;11.90;30.00;;;;;;5014894;28;20277;-85
2024/04/02 11:02:31;;;;;;;14.27;3.13;;;11.90;35.70;;;;;;5015282;28;20173;-85
2024/04/02 11:04:57;;;;;;;11.20;2.70;;;11.80;44.60;;;;;;5016921;28;20202;-83
2024/04/02 11:07:25;;;;;;;10.77;3.00;;;11.60;59.20;;;;;;5014948;28;20185;-85
2024/04/02 11:09:51;;;;;;;9.60;2.60;;;11.50;65.00;;;;;;5014850;28;20631;-83
2024/04/02 11:12:17;;;;;;;11.33;3.23;;;11.50;63.50;;;;;;5015320;28;20232;-85
2024/04/02 11:14:43;;;;;;;12.67;2.77;;;11.50;58.00;;;;;;5014634;28;20175;-85
2024/04/02 11:17:09;;;;;;;11.27;3.17;;;11.60;67.70;;;;;;5014906;28;20182;-83
2024/04/02 11:19:36;;;;;;;14.43;3.27;;;11.70;57.60;;;;;;5014694;28;20269;-84
2024/04/02 11:24:58;;;;;;;16.43;3.77;;;11.70;46.10;;;;;;5034403;28;20190;-82
2024/04/02 11:27:27;;;;;;;12.87;3.27;;;11.90;41.30;;;;;;5022089;28;20178;-85
2024/04/02 11:29:54;;;;;;;10.87;3.23;;;11.90;34.90;;;;;;5017135;28;20674;-85
2024/04/02 11:32:23;;;;;;;11.60;3.10;;;12.00;30.90;;;;;;5014779;28;20214;-84
2024/04/02 11:35:05;;;;;;;9.97;2.93;;;12.00;25.20;;;;;;5014361;28;20201;-84
2024/04/02 11:37:33;;;;;;;7.23;2.50;;;12.10;10.70;;;;;;5015381;28;20266;-85
2024/04/02 11:40:01;;;;;;;10.37;3.20;;;12.00;13.00;;;;;;5015360;28;20177;-87
2024/04/02 11:42:30;;;;;;;9.07;2.80;;;12.00;17.90;;;;;;5015151;28;20182;-87
2024/04/02 11:44:57;;;;;;;11.47;3.00;;;12.00;24.00;;;;;;5014554;28;20174;-87
2024/04/02 11:47:35;;;;;;;8.63;2.93;;;12.00;29.20;;;;;;5029419;28;20213;-86
2024/04/02 11:50:02;;;;;;;10.37;3.20;;;11.90;44.10;;;;;;5032585;28;20228;-87
2024/04/02 11:52:32;;;;;;;9.83;3.03;;;11.80;53.10;;;;;;5032784;28;20229;-87
2024/04/02 11:54:59;;;;;;;8.83;2.53;;;11.70;61.30;;;;;;5034436;28;20181;-92
2024/04/02 12:00:11;;;;;;;12.60;3.13;;;11.60;86.30;;;;;;5035799;28;20169;-86
2024/04/02 12:02:39;;;;;;;10.70;2.80;;;11.60;94.40;;;;;;5034780;28;20180;-87
2024/04/02 12:05:05;;;;;;;8.70;3.20;;;11.50;91.20;;;;;;5034255;28;20267;-86
2024/04/02 12:07:31;;;;;;;9.10;3.00;;;11.60;93.70;;;;;;5033676;28;20630;-86
2024/04/02 12:09:58;;;;;;;10.80;3.00;;;11.50;95.50;;;;;;5034466;28;20256;-84
2024/04/02 12:12:25;;;;;;;9.77;3.47;;;11.60;98.50;;;;;;5034241;28;20218;-85
2024/04/02 12:14:51;;;;;;;10.20;3.30;;;11.60;99.90;;;;;;5034537;28;20169;-87
2024/04/02 12:17:17;;;;;;;11.33;3.20;;;11.70;98.10;;;;;;5034498;28;20185;-86
2024/04/02 12:19:43;;;;;;;9.67;3.30;;;11.70;90.70;;;;;;5033847;28;20270;-86
2024/04/02 12:22:12;;;;;;;8.33;3.10;;;11.70;91.40;;;;;;5032334;28;20605;-87
2024/04/02 12:24:38;;;;;;;8.57;2.87;;;11.70;86.20;;;;;;5034485;28;20193;-85
2024/04/02 12:27:06;;;;;;;9.77;3.10;;;11.80;78.90;;;;;;5034723;28;20250;-87
2024/04/02 12:29:33;;;;;;;7.80;3.17;;;11.80;75.70;;;;;;5034404;28;20169;-87
2024/04/02 12:31:59;;;;;;;11.93;3.27;;;12.10;63.10;;;;;;5032508;28;20666;-87
2024/04/02 12:34:26;;;;;;;13.20;3.53;;;12.20;65.60;;;;;;5033097;28;20243;-87
2024/04/02 12:36:53;;;;;;;10.60;3.20;;;12.30;55.80;;;;;;5027316;28;20182;-85
2024/04/02 12:39:19;;;;;;;11.33;3.10;;;12.40;50.10;;;;;;5013876;28;20179;-86
2024/04/02 12:41:45;;;;;;;10.67;3.03;;;12.50;43.20;;;;;;5016509;28;20186;-85
2024/04/02 12:44:11;;;;;;;12.43;3.60;;;12.50;43.10;;;;;;5019896;28;20234;-84
2024/04/02 12:46:36;;;;;;;10.87;3.30;;;12.60;42.10;;;;;;5032689;28;20243;-88
2024/04/02 12:49:10;;;;;;;10.97;3.40;;;12.60;40.00;;;;;;5033987;28;20196;-82
2024/04/02 12:51:36;;;;;;;9.17;4.10;;;12.70;41.80;;;;;;5031809;28;20214;-87